sensor_id;sensor_type;location;lat;lon;timestamp;P1;durP1;ratioP1;P2;durP2;ratioP2
6282;SDS011;3174;53.486;9.568;2022-09-30T00:01:23;4.27;;;3.07;;
6282;SDS011;3174;53.486;9.568;2022-09-30T00:03:52;9.23;;;3.07;;
6282;SDS011;3174;53.486;9.568;2022-09-30T00:06:20;3.60;;;2.73;;
6282;SDS011;3174;53.486;9.568;2022-09-30T00:08:49;4.47;;;3.00;;
6282;SDS011;3174;53.486;9.568;2022-09-30T00:11:18;3.83;;;2.73;;
6282;SDS011;3174;53.486;9.568;2022-09-30T00:13:47;4.17;;;3.10;;
6282;SDS011;3174;53.486;9.568;2022-09-30T00:16:18;3.67;;;3.20;;
6282;SDS011;3174;53.486;9.568;2022-09-30T00:18:48;3.67;;;2.83;;
6282;SDS011;3174;53.486;9.568;2022-09-30T00:21:16;5.13;;;2.70;;
6282;SDS011;3174;53.486;9.568;2022-09-30T00:23:44;3.07;;;1.67;;
6282;SDS011;3174;53.486;9.568;2022-09-30T00:26:13;4.23;;;3.40;;
6282;SDS011;3174;53.486;9.568;2022-09-30T00:28:43;4.23;;;2.90;;
6282;SDS011;3174;53.486;9.568;2022-09-30T00:31:13;4.37;;;3.20;;
6282;SDS011;3174;53.486;9.568;2022-09-30T00:33:43;4.20;;;2.63;;
6282;SDS011;3174;53.486;9.568;2022-09-30T00:36:32;2.40;;;1.83;;
6282;SDS011;3174;53.486;9.568;2022-09-30T00:39:02;2.23;;;1.60;;
6282;SDS011;3174;53.486;9.568;2022-09-30T00:41:31;4.70;;;2.67;;
6282;SDS011;3174;53.486;9.568;2022-09-30T00:43:59;5.20;;;3.23;;
6282;SDS011;3174;53.486;9.568;2022-09-30T00:46:30;3.17;;;2.17;;
6282;SDS011;3174;53.486;9.568;2022-09-30T00:49:04;2.00;;;1.80;;
6282;SDS011;3174;53.486;9.568;2022-09-30T00:51:37;2.13;;;1.60;;
6282;SDS011;3174;53.486;9.568;2022-09-30T00:54:08;2.80;;;2.53;;
6282;SDS011;3174;53.486;9.568;2022-09-30T00:56:37;2.57;;;2.03;;
6282;SDS011;3174;53.486;9.568;2022-09-30T00:59:07;3.07;;;2.43;;
6282;SDS011;3174;53.486;9.568;2022-09-30T01:01:37;2.40;;;1.90;;
6282;SDS011;3174;53.486;9.568;2022-09-30T01:04:10;4.23;;;2.37;;
6282;SDS011;3174;53.486;9.568;2022-09-30T01:06:40;3.63;;;2.27;;
6282;SDS011;3174;53.486;9.568;2022-09-30T01:09:09;2.30;;;1.80;;
6282;SDS011;3174;53.486;9.568;2022-09-30T01:11:38;2.07;;;1.40;;
6282;SDS011;3174;53.486;9.568;2022-09-30T01:14:07;2.80;;;2.00;;
6282;SDS011;3174;53.486;9.568;2022-09-30T01:16:44;2.00;;;1.77;;
6282;SDS011;3174;53.486;9.568;2022-09-30T01:19:25;1.90;;;1.70;;
6282;SDS011;3174;53.486;9.568;2022-09-30T01:22:13;3.20;;;2.57;;
6282;SDS011;3174;53.486;9.568;2022-09-30T01:25:04;1.57;;;1.47;;
6282;SDS011;3174;53.486;9.568;2022-09-30T01:27:55;1.63;;;1.40;;
6282;SDS011;3174;53.486;9.568;2022-09-30T01:30:55;6.10;;;2.20;;
6282;SDS011;3174;53.486;9.568;2022-09-30T01:33:36;2.27;;;1.70;;
6282;SDS011;3174;53.486;9.568;2022-09-30T01:36:14;1.57;;;1.43;;
6282;SDS011;3174;53.486;9.568;2022-09-30T01:38:58;1.80;;;1.50;;
6282;SDS011;3174;53.486;9.568;2022-09-30T01:41:33;2.33;;;1.60;;
6282;SDS011;3174;53.486;9.568;2022-09-30T01:44:09;1.70;;;1.40;;
6282;SDS011;3174;53.486;9.568;2022-09-30T01:46:42;2.13;;;1.70;;
6282;SDS011;3174;53.486;9.568;2022-09-30T01:49:14;4.20;;;2.20;;
6282;SDS011;3174;53.486;9.568;2022-09-30T01:51:48;2.17;;;1.70;;
6282;SDS011;3174;53.486;9.568;2022-09-30T01:54:20;3.50;;;1.80;;
6282;SDS011;3174;53.486;9.568;2022-09-30T01:56:53;1.53;;;1.40;;
6282;SDS011;3174;53.486;9.568;2022-09-30T01:59:25;5.43;;;3.60;;
6282;SDS011;3174;53.486;9.568;2022-09-30T02:02:01;4.20;;;3.43;;
6282;SDS011;3174;53.486;9.568;2022-09-30T02:04:34;5.83;;;3.97;;
6282;SDS011;3174;53.486;9.568;2022-09-30T02:07:04;5.37;;;3.83;;
6282;SDS011;3174;53.486;9.568;2022-09-30T02:09:36;3.17;;;2.20;;
6282;SDS011;3174;53.486;9.568;2022-09-30T02:12:06;4.80;;;3.70;;
6282;SDS011;3174;53.486;9.568;2022-09-30T02:14:36;3.67;;;2.10;;
6282;SDS011;3174;53.486;9.568;2022-09-30T02:17:10;6.77;;;4.40;;
6282;SDS011;3174;53.486;9.568;2022-09-30T02:19:42;10.00;;;3.90;;
6282;SDS011;3174;53.486;9.568;2022-09-30T02:22:12;3.47;;;2.80;;
6282;SDS011;3174;53.486;9.568;2022-09-30T02:24:43;4.13;;;3.10;;
6282;SDS011;3174;53.486;9.568;2022-09-30T02:27:12;3.83;;;2.00;;
6282;SDS011;3174;53.486;9.568;2022-09-30T02:29:43;3.37;;;2.43;;
6282;SDS011;3174;53.486;9.568;2022-09-30T02:32:17;2.23;;;1.90;;
6282;SDS011;3174;53.486;9.568;2022-09-30T02:34:47;4.60;;;2.90;;
6282;SDS011;3174;53.486;9.568;2022-09-30T02:37:18;7.10;;;4.67;;
6282;SDS011;3174;53.486;9.568;2022-09-30T02:39:49;5.90;;;4.30;;
6282;SDS011;3174;53.486;9.568;2022-09-30T02:42:21;5.77;;;4.10;;
6282;SDS011;3174;53.486;9.568;2022-09-30T02:44:52;5.63;;;4.17;;
6282;SDS011;3174;53.486;9.568;2022-09-30T02:47:24;6.47;;;4.30;;
6282;SDS011;3174;53.486;9.568;2022-09-30T02:49:55;7.90;;;4.73;;
6282;SDS011;3174;53.486;9.568;2022-09-30T02:52:28;6.60;;;4.80;;
6282;SDS011;3174;53.486;9.568;2022-09-30T02:55:07;9.40;;;5.13;;
6282;SDS011;3174;53.486;9.568;2022-09-30T02:57:46;6.70;;;4.60;;
6282;SDS011;3174;53.486;9.568;2022-09-30T03:00:20;7.07;;;5.37;;
6282;SDS011;3174;53.486;9.568;2022-09-30T03:02:51;8.17;;;6.03;;
6282;SDS011;3174;53.486;9.568;2022-09-30T03:05:23;7.27;;;5.20;;
6282;SDS011;3174;53.486;9.568;2022-09-30T03:07:51;6.83;;;5.10;;
6282;SDS011;3174;53.486;9.568;2022-09-30T03:10:19;7.23;;;5.10;;
6282;SDS011;3174;53.486;9.568;2022-09-30T03:12:55;4.43;;;3.23;;
6282;SDS011;3174;53.486;9.568;2022-09-30T03:15:35;5.23;;;2.77;;
6282;SDS011;3174;53.486;9.568;2022-09-30T03:18:18;3.50;;;2.80;;
6282;SDS011;3174;53.486;9.568;2022-09-30T03:21:00;6.27;;;4.23;;
6282;SDS011;3174;53.486;9.568;2022-09-30T03:26:38;3.13;;;2.23;;
6282;SDS011;3174;53.486;9.568;2022-09-30T03:29:13;3.97;;;3.00;;
6282;SDS011;3174;53.486;9.568;2022-09-30T03:31:51;3.83;;;2.60;;
6282;SDS011;3174;53.486;9.568;2022-09-30T03:34:26;3.97;;;2.57;;
6282;SDS011;3174;53.486;9.568;2022-09-30T03:36:59;5.73;;;4.57;;
6282;SDS011;3174;53.486;9.568;2022-09-30T03:39:32;8.97;;;5.43;;
6282;SDS011;3174;53.486;9.568;2022-09-30T03:42:08;7.33;;;5.67;;
6282;SDS011;3174;53.486;9.568;2022-09-30T03:44:39;9.73;;;6.43;;
6282;SDS011;3174;53.486;9.568;2022-09-30T03:47:11;8.53;;;6.37;;
6282;SDS011;3174;53.486;9.568;2022-09-30T03:49:44;7.33;;;4.57;;
6282;SDS011;3174;53.486;9.568;2022-09-30T03:52:14;9.83;;;6.23;;
6282;SDS011;3174;53.486;9.568;2022-09-30T03:54:43;6.17;;;4.17;;
6282;SDS011;3174;53.486;9.568;2022-09-30T03:57:12;9.47;;;6.30;;
6282;SDS011;3174;53.486;9.568;2022-09-30T03:59:40;8.13;;;6.17;;
6282;SDS011;3174;53.486;9.568;2022-09-30T04:02:08;8.47;;;6.43;;
6282;SDS011;3174;53.486;9.568;2022-09-30T04:04:38;13.60;;;7.40;;
6282;SDS011;3174;53.486;9.568;2022-09-30T04:07:08;10.10;;;6.30;;
6282;SDS011;3174;53.486;9.568;2022-09-30T04:09:37;11.13;;;6.53;;
6282;SDS011;3174;53.486;9.568;2022-09-30T04:12:05;6.73;;;4.83;;
6282;SDS011;3174;53.486;9.568;2022-09-30T04:14:34;4.03;;;3.27;;
6282;SDS011;3174;53.486;9.568;2022-09-30T04:17:02;7.47;;;5.37;;
6282;SDS011;3174;53.486;9.568;2022-09-30T04:19:30;8.20;;;5.03;;
6282;SDS011;3174;53.486;9.568;2022-09-30T04:22:03;9.03;;;5.93;;
6282;SDS011;3174;53.486;9.568;2022-09-30T04:24:32;9.00;;;5.87;;
6282;SDS011;3174;53.486;9.568;2022-09-30T04:27:01;8.97;;;6.23;;
6282;SDS011;3174;53.486;9.568;2022-09-30T04:29:29;13.17;;;7.97;;
6282;SDS011;3174;53.486;9.568;2022-09-30T04:31:57;7.77;;;6.17;;
6282;SDS011;3174;53.486;9.568;2022-09-30T04:34:25;8.00;;;5.80;;
6282;SDS011;3174;53.486;9.568;2022-09-30T04:36:53;6.03;;;4.73;;
6282;SDS011;3174;53.486;9.568;2022-09-30T04:39:21;7.27;;;5.43;;
6282;SDS011;3174;53.486;9.568;2022-09-30T04:41:50;7.63;;;4.07;;
6282;SDS011;3174;53.486;9.568;2022-09-30T04:44:19;7.13;;;3.10;;
6282;SDS011;3174;53.486;9.568;2022-09-30T04:46:48;7.47;;;6.17;;
6282;SDS011;3174;53.486;9.568;2022-09-30T04:49:16;6.30;;;4.47;;
6282;SDS011;3174;53.486;9.568;2022-09-30T04:51:44;8.03;;;5.60;;
6282;SDS011;3174;53.486;9.568;2022-09-30T04:54:12;7.27;;;5.27;;
6282;SDS011;3174;53.486;9.568;2022-09-30T04:56:41;4.63;;;3.17;;
6282;SDS011;3174;53.486;9.568;2022-09-30T04:59:11;7.93;;;4.93;;
6282;SDS011;3174;53.486;9.568;2022-09-30T05:01:39;7.57;;;5.77;;
6282;SDS011;3174;53.486;9.568;2022-09-30T05:04:08;8.17;;;6.13;;
6282;SDS011;3174;53.486;9.568;2022-09-30T05:06:37;9.10;;;6.23;;
6282;SDS011;3174;53.486;9.568;2022-09-30T05:09:06;8.63;;;5.73;;
6282;SDS011;3174;53.486;9.568;2022-09-30T05:11:34;8.07;;;6.30;;
6282;SDS011;3174;53.486;9.568;2022-09-30T05:14:05;7.97;;;5.40;;
6282;SDS011;3174;53.486;9.568;2022-09-30T05:16:35;9.43;;;5.80;;
6282;SDS011;3174;53.486;9.568;2022-09-30T05:19:03;8.23;;;5.57;;
6282;SDS011;3174;53.486;9.568;2022-09-30T05:21:31;5.27;;;3.97;;
6282;SDS011;3174;53.486;9.568;2022-09-30T05:24:00;9.70;;;5.03;;
6282;SDS011;3174;53.486;9.568;2022-09-30T05:26:28;5.53;;;3.13;;
6282;SDS011;3174;53.486;9.568;2022-09-30T05:28:57;9.73;;;6.00;;
6282;SDS011;3174;53.486;9.568;2022-09-30T05:31:25;9.17;;;5.87;;
6282;SDS011;3174;53.486;9.568;2022-09-30T05:33:54;5.00;;;3.37;;
6282;SDS011;3174;53.486;9.568;2022-09-30T05:36:23;8.90;;;6.50;;
6282;SDS011;3174;53.486;9.568;2022-09-30T05:38:51;8.13;;;6.33;;
6282;SDS011;3174;53.486;9.568;2022-09-30T05:41:19;7.83;;;5.93;;
6282;SDS011;3174;53.486;9.568;2022-09-30T05:43:47;6.93;;;4.90;;
6282;SDS011;3174;53.486;9.568;2022-09-30T05:46:16;8.20;;;6.40;;
6282;SDS011;3174;53.486;9.568;2022-09-30T05:48:45;9.23;;;6.53;;
6282;SDS011;3174;53.486;9.568;2022-09-30T05:51:14;9.60;;;7.87;;
6282;SDS011;3174;53.486;9.568;2022-09-30T05:53:42;9.30;;;7.53;;
6282;SDS011;3174;53.486;9.568;2022-09-30T05:56:10;7.60;;;5.73;;
6282;SDS011;3174;53.486;9.568;2022-09-30T05:58:38;5.77;;;3.93;;
6282;SDS011;3174;53.486;9.568;2022-09-30T06:01:09;11.23;;;8.93;;
6282;SDS011;3174;53.486;9.568;2022-09-30T06:03:39;8.90;;;6.13;;
6282;SDS011;3174;53.486;9.568;2022-09-30T06:06:08;10.27;;;6.87;;
6282;SDS011;3174;53.486;9.568;2022-09-30T06:08:37;5.03;;;4.20;;
6282;SDS011;3174;53.486;9.568;2022-09-30T06:11:07;7.13;;;4.60;;
6282;SDS011;3174;53.486;9.568;2022-09-30T06:13:37;7.30;;;5.33;;
6282;SDS011;3174;53.486;9.568;2022-09-30T06:16:06;8.67;;;5.93;;
6282;SDS011;3174;53.486;9.568;2022-09-30T06:18:35;11.57;;;7.07;;
6282;SDS011;3174;53.486;9.568;2022-09-30T06:21:06;9.70;;;6.67;;
6282;SDS011;3174;53.486;9.568;2022-09-30T06:23:38;7.97;;;6.07;;
6282;SDS011;3174;53.486;9.568;2022-09-30T06:26:07;7.13;;;5.30;;
6282;SDS011;3174;53.486;9.568;2022-09-30T06:28:37;8.93;;;6.53;;
6282;SDS011;3174;53.486;9.568;2022-09-30T06:31:05;12.67;;;7.10;;
6282;SDS011;3174;53.486;9.568;2022-09-30T06:33:33;7.90;;;5.83;;
6282;SDS011;3174;53.486;9.568;2022-09-30T06:36:02;12.37;;;7.10;;
6282;SDS011;3174;53.486;9.568;2022-09-30T06:38:30;12.37;;;6.40;;
6282;SDS011;3174;53.486;9.568;2022-09-30T06:40:59;13.03;;;7.80;;
6282;SDS011;3174;53.486;9.568;2022-09-30T06:43:27;9.23;;;6.93;;
6282;SDS011;3174;53.486;9.568;2022-09-30T06:46:06;13.17;;;8.03;;
6282;SDS011;3174;53.486;9.568;2022-09-30T06:48:45;11.57;;;7.77;;
6282;SDS011;3174;53.486;9.568;2022-09-30T06:51:13;12.77;;;7.70;;
6282;SDS011;3174;53.486;9.568;2022-09-30T06:53:42;14.37;;;7.53;;
6282;SDS011;3174;53.486;9.568;2022-09-30T06:56:11;5.80;;;4.40;;
6282;SDS011;3174;53.486;9.568;2022-09-30T06:58:40;10.70;;;6.57;;
6282;SDS011;3174;53.486;9.568;2022-09-30T07:01:08;15.23;;;6.03;;
6282;SDS011;3174;53.486;9.568;2022-09-30T07:03:40;4.97;;;3.73;;
6282;SDS011;3174;53.486;9.568;2022-09-30T07:06:09;9.83;;;5.10;;
6282;SDS011;3174;53.486;9.568;2022-09-30T07:08:39;11.80;;;7.37;;
6282;SDS011;3174;53.486;9.568;2022-09-30T07:11:08;8.57;;;5.73;;
6282;SDS011;3174;53.486;9.568;2022-09-30T07:13:41;9.10;;;6.07;;
6282;SDS011;3174;53.486;9.568;2022-09-30T07:16:11;10.33;;;7.10;;
6282;SDS011;3174;53.486;9.568;2022-09-30T07:18:39;10.97;;;7.13;;
6282;SDS011;3174;53.486;9.568;2022-09-30T07:21:08;14.00;;;7.50;;
6282;SDS011;3174;53.486;9.568;2022-09-30T07:23:37;9.53;;;6.27;;
6282;SDS011;3174;53.486;9.568;2022-09-30T07:26:10;11.30;;;7.50;;
6282;SDS011;3174;53.486;9.568;2022-09-30T07:28:39;8.40;;;6.43;;
6282;SDS011;3174;53.486;9.568;2022-09-30T07:31:10;8.43;;;6.77;;
6282;SDS011;3174;53.486;9.568;2022-09-30T07:33:58;11.00;;;7.70;;
6282;SDS011;3174;53.486;9.568;2022-09-30T07:36:26;11.47;;;5.97;;
6282;SDS011;3174;53.486;9.568;2022-09-30T07:38:59;10.83;;;7.10;;
6282;SDS011;3174;53.486;9.568;2022-09-30T07:41:33;10.10;;;7.50;;
6282;SDS011;3174;53.486;9.568;2022-09-30T07:44:06;7.90;;;5.70;;
6282;SDS011;3174;53.486;9.568;2022-09-30T07:46:35;11.50;;;8.00;;
6282;SDS011;3174;53.486;9.568;2022-09-30T07:49:05;9.50;;;6.17;;
6282;SDS011;3174;53.486;9.568;2022-09-30T07:51:35;8.20;;;4.53;;
6282;SDS011;3174;53.486;9.568;2022-09-30T07:54:05;10.40;;;6.90;;
6282;SDS011;3174;53.486;9.568;2022-09-30T07:56:34;11.93;;;7.83;;
6282;SDS011;3174;53.486;9.568;2022-09-30T07:59:25;12.33;;;7.07;;
6282;SDS011;3174;53.486;9.568;2022-09-30T08:01:54;12.60;;;8.27;;
6282;SDS011;3174;53.486;9.568;2022-09-30T08:04:22;11.70;;;7.83;;
6282;SDS011;3174;53.486;9.568;2022-09-30T08:06:53;12.47;;;8.73;;
6282;SDS011;3174;53.486;9.568;2022-09-30T08:09:22;12.53;;;8.60;;
6282;SDS011;3174;53.486;9.568;2022-09-30T08:11:52;10.23;;;6.53;;
6282;SDS011;3174;53.486;9.568;2022-09-30T08:14:21;10.80;;;6.60;;
6282;SDS011;3174;53.486;9.568;2022-09-30T08:16:51;12.30;;;8.27;;
6282;SDS011;3174;53.486;9.568;2022-09-30T08:19:21;12.03;;;6.77;;
6282;SDS011;3174;53.486;9.568;2022-09-30T08:21:50;13.53;;;8.30;;
6282;SDS011;3174;53.486;9.568;2022-09-30T08:24:19;13.50;;;7.13;;
6282;SDS011;3174;53.486;9.568;2022-09-30T08:26:48;14.50;;;8.00;;
6282;SDS011;3174;53.486;9.568;2022-09-30T08:29:17;11.17;;;7.17;;
6282;SDS011;3174;53.486;9.568;2022-09-30T08:32:07;10.47;;;6.80;;
6282;SDS011;3174;53.486;9.568;2022-09-30T08:34:35;10.53;;;6.27;;
6282;SDS011;3174;53.486;9.568;2022-09-30T08:37:02;13.47;;;7.30;;
6282;SDS011;3174;53.486;9.568;2022-09-30T08:39:34;13.77;;;8.10;;
6282;SDS011;3174;53.486;9.568;2022-09-30T08:42:09;10.20;;;6.10;;
6282;SDS011;3174;53.486;9.568;2022-09-30T08:45:05;7.90;;;5.00;;
6282;SDS011;3174;53.486;9.568;2022-09-30T08:47:42;9.63;;;6.30;;
6282;SDS011;3174;53.486;9.568;2022-09-30T08:50:15;8.03;;;5.57;;
6282;SDS011;3174;53.486;9.568;2022-09-30T08:52:46;6.90;;;4.97;;
6282;SDS011;3174;53.486;9.568;2022-09-30T08:55:18;8.83;;;6.60;;
6282;SDS011;3174;53.486;9.568;2022-09-30T08:57:48;9.53;;;6.37;;
6282;SDS011;3174;53.486;9.568;2022-09-30T09:00:16;9.03;;;5.70;;
6282;SDS011;3174;53.486;9.568;2022-09-30T09:02:48;6.50;;;4.77;;
6282;SDS011;3174;53.486;9.568;2022-09-30T09:05:25;6.87;;;4.50;;
6282;SDS011;3174;53.486;9.568;2022-09-30T09:08:00;6.90;;;3.70;;
6282;SDS011;3174;53.486;9.568;2022-09-30T09:10:33;7.37;;;5.10;;
6282;SDS011;3174;53.486;9.568;2022-09-30T09:13:08;8.77;;;5.20;;
6282;SDS011;3174;53.486;9.568;2022-09-30T09:15:49;7.73;;;4.23;;
6282;SDS011;3174;53.486;9.568;2022-09-30T09:21:16;7.80;;;4.23;;
6282;SDS011;3174;53.486;9.568;2022-09-30T09:23:50;7.17;;;4.83;;
6282;SDS011;3174;53.486;9.568;2022-09-30T09:26:19;6.07;;;4.37;;
6282;SDS011;3174;53.486;9.568;2022-09-30T09:28:51;8.87;;;4.63;;
6282;SDS011;3174;53.486;9.568;2022-09-30T09:31:26;5.80;;;3.80;;
6282;SDS011;3174;53.486;9.568;2022-09-30T09:33:58;4.23;;;3.20;;
6282;SDS011;3174;53.486;9.568;2022-09-30T09:36:31;10.93;;;3.73;;
6282;SDS011;3174;53.486;9.568;2022-09-30T09:39:09;7.97;;;3.60;;
6282;SDS011;3174;53.486;9.568;2022-09-30T09:41:47;4.83;;;3.40;;
6282;SDS011;3174;53.486;9.568;2022-09-30T09:44:20;5.50;;;2.97;;
6282;SDS011;3174;53.486;9.568;2022-09-30T09:46:52;5.17;;;3.60;;
6282;SDS011;3174;53.486;9.568;2022-09-30T09:49:31;3.73;;;2.90;;
6282;SDS011;3174;53.486;9.568;2022-09-30T09:52:23;4.43;;;3.30;;
6282;SDS011;3174;53.486;9.568;2022-09-30T09:55:01;6.30;;;3.70;;
6282;SDS011;3174;53.486;9.568;2022-09-30T09:57:29;5.90;;;3.93;;
6282;SDS011;3174;53.486;9.568;2022-09-30T09:59:58;5.10;;;3.43;;
6282;SDS011;3174;53.486;9.568;2022-09-30T10:03:00;4.73;;;3.50;;
6282;SDS011;3174;53.486;9.568;2022-09-30T10:05:31;7.47;;;2.97;;
6282;SDS011;3174;53.486;9.568;2022-09-30T10:08:09;4.87;;;3.57;;
6282;SDS011;3174;53.486;9.568;2022-09-30T10:10:43;5.17;;;3.30;;
6282;SDS011;3174;53.486;9.568;2022-09-30T10:13:14;6.13;;;3.73;;
6282;SDS011;3174;53.486;9.568;2022-09-30T10:15:44;5.77;;;3.37;;
6282;SDS011;3174;53.486;9.568;2022-09-30T10:18:16;5.87;;;3.30;;
6282;SDS011;3174;53.486;9.568;2022-09-30T10:20:53;4.10;;;3.30;;
6282;SDS011;3174;53.486;9.568;2022-09-30T10:23:25;4.87;;;3.03;;
6282;SDS011;3174;53.486;9.568;2022-09-30T10:25:56;4.97;;;3.00;;
6282;SDS011;3174;53.486;9.568;2022-09-30T10:28:31;5.57;;;2.93;;
6282;SDS011;3174;53.486;9.568;2022-09-30T10:31:02;3.70;;;2.30;;
6282;SDS011;3174;53.486;9.568;2022-09-30T10:33:33;2.70;;;2.17;;
6282;SDS011;3174;53.486;9.568;2022-09-30T10:36:11;3.10;;;2.43;;
6282;SDS011;3174;53.486;9.568;2022-09-30T10:38:50;3.40;;;1.97;;
6282;SDS011;3174;53.486;9.568;2022-09-30T10:41:27;4.23;;;2.07;;
6282;SDS011;3174;53.486;9.568;2022-09-30T10:43:57;2.83;;;2.00;;
6282;SDS011;3174;53.486;9.568;2022-09-30T10:46:27;2.47;;;1.80;;
6282;SDS011;3174;53.486;9.568;2022-09-30T10:48:57;2.90;;;1.80;;
6282;SDS011;3174;53.486;9.568;2022-09-30T10:51:28;2.10;;;1.60;;
6282;SDS011;3174;53.486;9.568;2022-09-30T10:53:59;6.27;;;3.17;;
6282;SDS011;3174;53.486;9.568;2022-09-30T10:56:34;3.07;;;2.73;;
6282;SDS011;3174;53.486;9.568;2022-09-30T10:59:15;3.27;;;2.43;;
6282;SDS011;3174;53.486;9.568;2022-09-30T11:01:50;3.60;;;2.20;;
6282;SDS011;3174;53.486;9.568;2022-09-30T11:04:25;7.17;;;3.30;;
6282;SDS011;3174;53.486;9.568;2022-09-30T11:07:00;1.80;;;1.50;;
6282;SDS011;3174;53.486;9.568;2022-09-30T11:09:39;2.10;;;1.50;;
6282;SDS011;3174;53.486;9.568;2022-09-30T11:12:15;1.73;;;1.50;;
6282;SDS011;3174;53.486;9.568;2022-09-30T11:14:47;1.80;;;1.60;;
6282;SDS011;3174;53.486;9.568;2022-09-30T11:17:26;3.43;;;1.40;;
6282;SDS011;3174;53.486;9.568;2022-09-30T11:20:00;4.27;;;1.50;;
6282;SDS011;3174;53.486;9.568;2022-09-30T11:22:38;4.33;;;2.80;;
6282;SDS011;3174;53.486;9.568;2022-09-30T11:25:11;3.70;;;2.40;;
6282;SDS011;3174;53.486;9.568;2022-09-30T11:27:54;3.07;;;2.10;;
6282;SDS011;3174;53.486;9.568;2022-09-30T11:30:30;2.63;;;2.10;;
6282;SDS011;3174;53.486;9.568;2022-09-30T11:33:04;3.00;;;1.73;;
6282;SDS011;3174;53.486;9.568;2022-09-30T11:35:45;2.53;;;1.90;;
6282;SDS011;3174;53.486;9.568;2022-09-30T11:38:23;2.93;;;2.37;;
6282;SDS011;3174;53.486;9.568;2022-09-30T11:41:00;3.23;;;2.63;;
6282;SDS011;3174;53.486;9.568;2022-09-30T11:43:33;3.47;;;2.80;;
6282;SDS011;3174;53.486;9.568;2022-09-30T11:46:12;3.00;;;2.23;;
6282;SDS011;3174;53.486;9.568;2022-09-30T11:48:54;4.57;;;2.50;;
6282;SDS011;3174;53.486;9.568;2022-09-30T11:51:30;5.43;;;2.80;;
6282;SDS011;3174;53.486;9.568;2022-09-30T11:54:10;5.37;;;4.10;;
6282;SDS011;3174;53.486;9.568;2022-09-30T11:56:49;6.27;;;3.90;;
6282;SDS011;3174;53.486;9.568;2022-09-30T11:59:20;5.60;;;4.67;;
6282;SDS011;3174;53.486;9.568;2022-09-30T12:01:50;5.50;;;4.37;;
6282;SDS011;3174;53.486;9.568;2022-09-30T12:04:21;6.07;;;4.57;;
6282;SDS011;3174;53.486;9.568;2022-09-30T12:06:55;6.63;;;4.70;;
6282;SDS011;3174;53.486;9.568;2022-09-30T12:09:28;5.93;;;4.17;;
6282;SDS011;3174;53.486;9.568;2022-09-30T12:11:59;5.47;;;3.43;;
6282;SDS011;3174;53.486;9.568;2022-09-30T12:14:30;5.43;;;3.57;;
6282;SDS011;3174;53.486;9.568;2022-09-30T12:17:03;6.43;;;3.77;;
6282;SDS011;3174;53.486;9.568;2022-09-30T12:19:35;4.60;;;3.63;;
6282;SDS011;3174;53.486;9.568;2022-09-30T12:22:10;4.73;;;3.53;;
6282;SDS011;3174;53.486;9.568;2022-09-30T12:24:42;4.57;;;3.50;;
6282;SDS011;3174;53.486;9.568;2022-09-30T12:27:13;5.67;;;3.77;;
6282;SDS011;3174;53.486;9.568;2022-09-30T12:29:45;4.73;;;3.47;;
6282;SDS011;3174;53.486;9.568;2022-09-30T12:32:54;4.50;;;3.30;;
6282;SDS011;3174;53.486;9.568;2022-09-30T12:35:46;5.67;;;3.37;;
6282;SDS011;3174;53.486;9.568;2022-09-30T12:38:29;7.20;;;4.67;;
6282;SDS011;3174;53.486;9.568;2022-09-30T12:41:20;7.30;;;4.13;;
6282;SDS011;3174;53.486;9.568;2022-09-30T12:44:02;6.80;;;3.97;;
6282;SDS011;3174;53.486;9.568;2022-09-30T12:47:03;8.23;;;3.97;;
6282;SDS011;3174;53.486;9.568;2022-09-30T12:49:40;6.67;;;4.50;;
6282;SDS011;3174;53.486;9.568;2022-09-30T12:52:11;4.30;;;3.40;;
6282;SDS011;3174;53.486;9.568;2022-09-30T12:54:43;4.63;;;3.30;;
6282;SDS011;3174;53.486;9.568;2022-09-30T12:57:17;5.73;;;3.60;;
6282;SDS011;3174;53.486;9.568;2022-09-30T12:59:50;7.47;;;2.90;;
6282;SDS011;3174;53.486;9.568;2022-09-30T13:02:25;4.17;;;2.97;;
6282;SDS011;3174;53.486;9.568;2022-09-30T13:08:07;7.97;;;4.10;;
6282;SDS011;3174;53.486;9.568;2022-09-30T13:10:43;5.43;;;3.60;;
6282;SDS011;3174;53.486;9.568;2022-09-30T13:13:18;7.63;;;4.97;;
6282;SDS011;3174;53.486;9.568;2022-09-30T13:15:49;6.03;;;4.20;;
6282;SDS011;3174;53.486;9.568;2022-09-30T13:21:37;6.23;;;3.80;;
6282;SDS011;3174;53.486;9.568;2022-09-30T13:24:05;5.13;;;3.73;;
6282;SDS011;3174;53.486;9.568;2022-09-30T13:26:38;4.20;;;3.43;;
6282;SDS011;3174;53.486;9.568;2022-09-30T13:32:29;5.53;;;4.37;;
6282;SDS011;3174;53.486;9.568;2022-09-30T13:34:59;8.67;;;4.80;;
6282;SDS011;3174;53.486;9.568;2022-09-30T13:37:37;4.93;;;4.10;;
6282;SDS011;3174;53.486;9.568;2022-09-30T13:40:17;5.67;;;4.17;;
6282;SDS011;3174;53.486;9.568;2022-09-30T13:43:09;6.27;;;4.27;;
6282;SDS011;3174;53.486;9.568;2022-09-30T13:45:38;4.53;;;3.30;;
6282;SDS011;3174;53.486;9.568;2022-09-30T13:48:09;4.93;;;3.60;;
6282;SDS011;3174;53.486;9.568;2022-09-30T13:50:40;7.20;;;4.63;;
6282;SDS011;3174;53.486;9.568;2022-09-30T13:53:13;6.20;;;4.03;;
6282;SDS011;3174;53.486;9.568;2022-09-30T13:55:46;10.80;;;5.73;;
6282;SDS011;3174;53.486;9.568;2022-09-30T13:58:28;7.37;;;4.63;;
6282;SDS011;3174;53.486;9.568;2022-09-30T14:01:08;5.73;;;4.13;;
6282;SDS011;3174;53.486;9.568;2022-09-30T14:03:47;7.17;;;4.50;;
6282;SDS011;3174;53.486;9.568;2022-09-30T14:06:27;7.27;;;4.70;;
6282;SDS011;3174;53.486;9.568;2022-09-30T14:09:06;6.23;;;4.63;;
6282;SDS011;3174;53.486;9.568;2022-09-30T14:11:48;6.10;;;4.37;;
6282;SDS011;3174;53.486;9.568;2022-09-30T14:14:36;5.57;;;4.33;;
6282;SDS011;3174;53.486;9.568;2022-09-30T14:17:18;4.60;;;4.10;;
6282;SDS011;3174;53.486;9.568;2022-09-30T14:19:59;4.70;;;3.50;;
6282;SDS011;3174;53.486;9.568;2022-09-30T14:22:45;4.43;;;2.87;;
6282;SDS011;3174;53.486;9.568;2022-09-30T14:25:15;7.00;;;3.80;;
6282;SDS011;3174;53.486;9.568;2022-09-30T14:27:47;7.43;;;4.33;;
6282;SDS011;3174;53.486;9.568;2022-09-30T14:30:23;3.90;;;3.37;;
6282;SDS011;3174;53.486;9.568;2022-09-30T14:32:54;4.90;;;3.80;;
6282;SDS011;3174;53.486;9.568;2022-09-30T14:35:24;5.60;;;4.23;;
6282;SDS011;3174;53.486;9.568;2022-09-30T14:37:55;7.30;;;4.57;;
6282;SDS011;3174;53.486;9.568;2022-09-30T14:40:26;8.40;;;4.93;;
6282;SDS011;3174;53.486;9.568;2022-09-30T14:42:56;5.17;;;3.40;;
6282;SDS011;3174;53.486;9.568;2022-09-30T14:45:28;9.63;;;7.10;;
6282;SDS011;3174;53.486;9.568;2022-09-30T14:48:00;5.70;;;4.50;;
6282;SDS011;3174;53.486;9.568;2022-09-30T14:50:34;7.43;;;4.77;;
6282;SDS011;3174;53.486;9.568;2022-09-30T14:53:03;6.83;;;4.23;;
6282;SDS011;3174;53.486;9.568;2022-09-30T14:55:32;7.33;;;4.67;;
6282;SDS011;3174;53.486;9.568;2022-09-30T14:58:20;6.13;;;4.20;;
6282;SDS011;3174;53.486;9.568;2022-09-30T15:00:57;5.50;;;4.20;;
6282;SDS011;3174;53.486;9.568;2022-09-30T15:03:29;5.97;;;4.27;;
6282;SDS011;3174;53.486;9.568;2022-09-30T15:06:00;5.90;;;4.57;;
6282;SDS011;3174;53.486;9.568;2022-09-30T15:08:28;7.33;;;5.50;;
6282;SDS011;3174;53.486;9.568;2022-09-30T15:10:56;6.87;;;4.80;;
6282;SDS011;3174;53.486;9.568;2022-09-30T15:13:25;6.50;;;4.70;;
6282;SDS011;3174;53.486;9.568;2022-09-30T15:15:56;5.33;;;3.83;;
6282;SDS011;3174;53.486;9.568;2022-09-30T15:18:29;6.70;;;5.10;;
6282;SDS011;3174;53.486;9.568;2022-09-30T15:21:00;5.90;;;4.20;;
6282;SDS011;3174;53.486;9.568;2022-09-30T15:23:34;6.50;;;4.70;;
6282;SDS011;3174;53.486;9.568;2022-09-30T15:26:03;6.33;;;4.40;;
6282;SDS011;3174;53.486;9.568;2022-09-30T15:28:32;6.13;;;4.70;;
6282;SDS011;3174;53.486;9.568;2022-09-30T15:31:02;7.80;;;5.03;;
6282;SDS011;3174;53.486;9.568;2022-09-30T15:33:32;6.13;;;4.67;;
6282;SDS011;3174;53.486;9.568;2022-09-30T15:36:01;8.27;;;4.80;;
6282;SDS011;3174;53.486;9.568;2022-09-30T15:38:32;6.27;;;4.73;;
6282;SDS011;3174;53.486;9.568;2022-09-30T15:41:02;7.90;;;5.10;;
6282;SDS011;3174;53.486;9.568;2022-09-30T15:43:32;7.30;;;4.90;;
6282;SDS011;3174;53.486;9.568;2022-09-30T15:46:15;6.97;;;5.03;;
6282;SDS011;3174;53.486;9.568;2022-09-30T15:48:48;7.67;;;5.23;;
6282;SDS011;3174;53.486;9.568;2022-09-30T15:51:23;6.97;;;5.33;;
6282;SDS011;3174;53.486;9.568;2022-09-30T15:53:55;6.27;;;5.23;;
6282;SDS011;3174;53.486;9.568;2022-09-30T15:56:29;6.93;;;4.77;;
6282;SDS011;3174;53.486;9.568;2022-09-30T15:59:02;7.07;;;5.20;;
6282;SDS011;3174;53.486;9.568;2022-09-30T16:01:31;6.83;;;4.93;;
6282;SDS011;3174;53.486;9.568;2022-09-30T16:04:03;6.50;;;4.80;;